Latest Weather Observations for Mallacoota

IDV60801

Issued at 9:35 am EDT Thursday 23 October 2014 (issued every 30 minutes, with the page automatically refreshed every 10 minutes)

About weather observations | Map of weather stations | Latest weather observations for VIC | Other Formats
Station Details ID: 084084 Name: MALLACOOTA Lat: -37.60 Lon: 149.73 Height: 22.0 m
Data from the previous 72 hours. | See also: Recent months at Mallacoota
Date/Time
EDT
Temp
°C
App
Temp
°C
Dew
Point
Rel
Hum
%
Delta-T
°C
Wind Press
QNH
hPa
Press
MSL
hPa
Rain
since 9 am
mm
Dir
 
Spd
km/h
Gust
km/h
Spd
kts
Gust
kts
23/09:30am 20.5 19.4 14.4 68 3.5 SSW 13 22 7 12 1018.4 - 0.0
23/09:00am 20.4 20.1 13.4 64 4.0 S 7 13 4 7 1017.4 1017.4 0.0
23/08:30am 20.0 19.2 13.0 64 4.0 S 9 17 5 9 1017.1 - 0.0
23/08:00am 19.9 20.0 13.8 68 3.5 ENE 6 7 3 4 1016.8 - 0.0
23/07:30am 18.9 19.9 14.2 74 2.7 NNW 2 6 1 3 1017.1 - 0.0
23/07:00am 17.0 16.5 12.7 76 2.4 SE 7 11 4 6 1017.1 - 0.0
23/06:30am 15.2 14.8 12.9 86 1.3 NW 7 17 4 9 1016.9 - 0.0
23/06:00am 15.4 15.0 12.5 83 1.6 WSW 6 9 3 5 1017.2 1017.2 0.0
23/05:30am 15.9 15.4 12.8 82 1.7 NW 7 13 4 7 1016.4 - 0.0
23/05:00am 15.9 15.4 12.6 81 1.8 WSW 7 13 4 7 1016.0 - 0.0
23/04:30am 15.8 13.8 12.7 82 1.7 NNW 15 20 8 11 1015.1 - 0.0
23/04:00am 16.3 15.8 12.7 79 2.0 NNW 7 15 4 8 1015.2 - 0.0
23/03:30am 15.9 15.4 12.6 81 1.8 N 7 13 4 7 1015.1 - 0.0
23/03:00am 16.4 16.0 13.1 81 1.8 WNW 7 13 4 7 1015.7 1015.7 0.0
23/02:30am 15.8 14.9 12.7 82 1.7 N 9 11 5 6 1015.5 - 0.0
23/02:00am 15.8 15.0 12.9 83 1.6 N 9 13 5 7 1015.8 - 0.0
23/01:30am 16.0 15.1 12.7 81 1.8 N 9 15 5 8 1016.3 - 0.0
23/01:00am 16.0 14.8 12.7 81 1.8 NNW 11 15 6 8 1016.9 - 0.0
23/12:30am 16.0 14.7 12.6 80 1.9 NNW 11 17 6 9 1017.0 - 0.0
23/12:00am 16.4 14.5 12.9 80 1.9 NW 15 20 8 11 1017.1 1017.1 0.0
 
Date/Time
EDT
Temp
°C
App
Temp
°C
Dew
Point
Rel
Hum
%
Delta-T
°C
Wind Press
QNH
hPa
Press
MSL
hPa
Rain
since 9 am
mm
Dir
 
Spd
km/h
Gust
km/h
Spd
kts
Gust
kts
22/11:30pm 16.4 14.4 12.8 79 2.0 NNW 15 22 8 12 1017.1 - 0.0
22/11:00pm 16.1 14.4 12.5 79 2.0 NNW 13 17 7 9 1017.2 - 0.0
22/10:30pm 16.0 14.3 12.6 80 1.9 NNW 13 19 7 10 1017.4 - 0.0
22/10:00pm 16.0 14.6 12.2 78 2.1 N 11 15 6 8 1017.6 - 0.0
22/09:30pm 16.5 15.1 12.1 75 2.4 N 11 15 6 8 1017.8 - 0.0
22/09:00pm 16.7 15.2 11.8 73 2.7 N 11 17 6 9 1018.0 1018.0 0.0
22/08:30pm 17.0 15.4 11.7 71 2.9 NNW 11 19 6 10 1017.8 - 0.0
22/08:00pm 17.9 16.0 11.9 68 3.3 N 13 19 7 10 1017.5 - 0.0
22/07:30pm 18.9 17.2 12.4 66 3.6 N 13 19 7 10 1017.3 - 0.0
22/07:00pm 19.9 18.7 12.9 64 4.0 N 11 17 6 9 1017.3 - 0.0
22/06:30pm 21.3 19.8 13.0 59 4.7 N 13 19 7 10 1017.0 - 0.0
22/06:00pm 22.6 20.8 13.4 56 5.3 N 15 20 8 11 1017.0 1017.0 0.0
22/05:30pm 21.3 21.0 14.5 65 4.0 NE 9 15 5 8 1017.1 - 0.0
22/05:00pm 20.4 19.1 13.8 66 3.8 NE 13 22 7 12 1017.2 - 0.0
22/04:30pm 20.0 19.5 13.7 67 3.6 NNE 9 15 5 8 1017.3 - 0.0
22/04:00pm 20.7 20.4 14.4 67 3.7 NNE 9 15 5 8 1017.4 - 0.0
22/03:30pm 20.4 19.4 13.4 64 4.0 NE 11 22 6 12 1017.8 - 0.0
22/03:00pm 24.2 22.5 12.5 48 6.7 NE 13 22 7 12 1017.9 1017.9 0.0
22/02:30pm 24.2 22.0 12.2 47 6.8 NNE 15 22 8 12 1018.4 - 0.0
22/02:00pm 23.9 21.6 11.9 47 6.8 N 15 20 8 11 1018.7 - 0.0
22/01:30pm 23.2 20.5 11.6 48 6.5 NNE 17 26 9 14 1018.9 - 0.0
22/01:00pm 22.7 20.0 11.7 49 6.2 N 17 24 9 13 1019.4 - 0.0
22/12:30pm 22.4 19.1 11.5 50 6.1 NNE 20 30 11 16 1019.6 - 0.0
22/12:00pm 21.9 18.4 11.0 50 6.0 N 20 30 11 16 1020.3 1020.3 0.0
22/11:30am 21.0 17.1 10.8 52 5.6 N 22 32 12 17 1021.0 - 0.0
22/11:00am 20.4 16.7 10.2 52 5.5 N 20 30 11 16 1021.4 - 0.0
22/10:30am 19.2 14.8 9.1 52 5.3 N 22 37 12 20 1021.8 - 0.0
22/10:00am 18.5 13.7 8.7 53 5.1 N 24 37 13 20 1022.1 - 0.0
22/09:30am 17.9 13.0 8.5 54 4.8 N 24 37 13 20 1022.4 - 0.0
22/09:00am 16.9 11.5 7.8 55 4.6 N 26 44 14 24 1022.4 1022.5 0.0
22/08:30am 16.4 11.7 7.6 56 4.4 N 22 39 12 21 1022.7 - 0.0
22/08:00am 15.8 10.7 7.8 59 4.0 N 24 39 13 21 1022.9 - 0.0
22/07:30am 14.9 10.1 7.5 61 3.7 N 22 35 12 19 1023.0 - 0.0
22/07:00am 14.2 9.7 7.0 62 3.5 N 20 39 11 21 1023.0 - 0.0
22/06:30am 13.7 9.2 7.0 64 3.3 N 20 32 11 17 1023.3 - 0.0
22/06:00am 13.4 9.5 7.0 65 3.1 N 17 24 9 13 1023.2 1023.3 0.0
22/05:30am 13.6 9.1 6.9 64 3.2 N 20 30 11 16 1023.2 - 0.0
22/05:00am 13.7 9.4 6.8 63 3.3 N 19 32 10 17 1023.3 - 0.0
22/04:30am 13.8 9.3 6.9 63 3.3 N 20 30 11 16 1023.5 - 0.0
22/04:00am 13.8 8.9 6.9 63 3.3 N 22 33 12 18 1024.0 - 0.0
22/03:30am 13.8 9.5 6.9 63 3.3 N 19 32 10 17 1024.4 - 0.0
22/03:00am 13.9 9.6 7.0 63 3.3 N 19 30 10 16 1024.5 1024.6 0.0
22/02:30am 14.1 9.7 7.2 63 3.4 N 20 33 11 18 1024.9 - 0.0
22/02:00am 14.1 9.7 7.4 64 3.3 N 20 30 11 16 1025.4 - 0.0
22/01:30am 13.9 9.7 7.4 65 3.2 N 19 30 10 16 1026.0 - 0.0
22/01:00am 14.0 9.7 7.8 66 3.1 N 20 33 11 18 1026.5 - 0.0
22/12:30am 14.2 10.0 8.2 67 3.0 N 20 32 11 17 1026.9 - 0.0
22/12:00am 14.1 10.5 8.5 69 2.8 N 17 26 9 14 1027.3 1027.4 0.0
 
Date/Time
EDT
Temp
°C
App
Temp
°C
Dew
Point
Rel
Hum
%
Delta-T
°C
Wind Press
QNH
hPa
Press
MSL
hPa
Rain
since 9 am
mm
Dir
 
Spd
km/h
Gust
km/h
Spd
kts
Gust
kts
21/11:30pm 14.2 11.1 8.8 70 2.7 N 15 22 8 12 1027.7 - 0.0
21/11:00pm 14.6 10.9 9.4 71 2.7 N 19 30 10 16 1028.0 - 0.0
21/10:30pm 14.5 10.9 9.9 74 2.4 NNE 19 28 10 15 1028.0 - 0.0
21/10:00pm 14.0 11.2 10.0 77 2.1 NNE 15 19 8 10 1028.3 - 0.0
21/09:30pm 14.4 10.9 10.2 76 2.2 NNE 19 28 10 15 1028.5 - 0.0
21/09:00pm 14.4 11.2 10.0 75 2.3 NNE 17 24 9 13 1028.6 1028.7 0.0
21/08:30pm 14.4 10.6 9.8 74 2.4 NNE 20 26 11 14 1028.5 - 0.0
21/08:00pm 14.6 10.4 9.8 73 2.5 NNE 22 30 12 16 1028.5 - 0.0
21/07:30pm 14.6 9.9 9.4 71 2.7 NNE 24 33 13 18 1028.4 - 0.0
21/07:00pm 15.0 10.3 9.4 69 2.9 NNE 24 35 13 19 1028.4 - 0.0
21/06:30pm 15.3 10.1 9.0 66 3.2 NNE 26 35 14 19 1028.4 - 0.0
21/06:00pm 15.9 11.2 9.1 64 3.5 NNE 24 35 13 19 1028.4 1028.5 0.0
21/05:30pm 16.2 11.1 9.2 63 3.6 NNE 26 41 14 22 1028.6 - 0.0
21/05:00pm 16.3 11.0 8.5 60 4.0 NNE 26 37 14 20 1028.7 - 0.0
21/04:30pm 16.7 10.9 8.1 57 4.4 NNE 28 39 15 21 1028.5 - 0.0
21/04:00pm 16.7 12.1 8.1 57 4.4 NNE 22 37 12 20 1028.5 - 0.0
21/03:40pm 17.5 11.6 7.5 52 5.0 NNE 28 46 15 25 1028.8 - 0.0
21/03:30pm 17.1 12.1 8.0 55 4.6 NNE 24 39 13 21 1028.9 - 0.0
21/03:00pm 17.7 13.6 8.6 55 4.7 NNE 20 37 11 20 1029.1 1029.2 0.0
21/02:30pm 18.0 12.6 8.0 52 5.1 NNE 26 37 14 20 1029.5 - 0.0
21/02:00pm 17.6 13.5 8.7 56 4.6 NNE 20 32 11 17 1030.1 - 0.0
21/01:30pm 16.9 11.8 7.5 54 4.7 NE 24 37 13 20 1030.5 - 0.0
21/01:00pm 16.6 11.5 7.8 56 4.4 NNE 24 37 13 20 1030.8 - 0.0
21/12:30pm 16.6 11.0 7.3 54 4.6 NNE 26 37 14 20 1031.3 - 0.0
21/12:00pm 16.4 10.8 7.1 54 4.6 NNE 26 35 14 19 1031.6 1031.7 0.0
21/11:30am 16.6 11.3 7.0 53 4.8 NNE 24 35 13 19 1031.9 - 0.0
21/11:00am 16.1 11.7 7.3 56 4.4 NNE 20 32 11 17 1032.2 - 0.0
21/10:30am 16.3 11.3 6.4 52 4.8 NNE 22 35 12 19 1032.5 - 0.0
21/10:00am 15.8 9.9 5.7 51 4.8 NNE 26 35 14 19 1032.7 - 0.0
21/09:30am 15.5 10.7 5.7 52 4.7 NNE 20 35 11 19 1032.8 - 0.0
21/09:00am 15.2 10.4 5.4 52 4.6 NNE 20 35 11 19 1032.7 1032.8 0.0
21/08:30am 14.9 10.9 4.9 51 4.7 NNE 15 22 8 12 1032.6 - 0.0
21/08:00am 14.6 10.4 5.9 56 4.2 NE 17 28 9 15 1032.4 - 0.0
21/07:30am 13.2 10.0 6.8 65 3.1 NNE 13 19 7 10 1032.3 - 0.0
21/07:00am 12.5 9.9 6.1 65 3.0 N 9 13 5 7 1032.0 - 0.0
21/06:30am 12.0 8.6 5.9 66 2.9 N 13 17 7 9 1031.8 - 0.0
21/06:00am 11.4 8.8 6.3 71 2.4 N 9 11 5 6 1031.7 1031.8 0.0
21/05:30am 11.3 8.3 6.2 71 2.4 N 11 15 6 8 1031.6 - 0.0
21/05:00am 10.6 7.6 6.2 74 2.1 N 11 13 6 7 1031.6 - 0.0
21/04:30am 11.4 8.5 6.7 73 2.2 N 11 13 6 7 1031.7 - 0.0
21/04:00am 11.0 8.5 6.7 75 2.0 N 9 13 5 7 1031.7 - 0.0
21/03:30am 11.1 7.8 6.6 74 2.1 N 13 17 7 9 1031.9 - 0.0
21/03:00am 10.3 7.4 6.6 78 1.7 N 11 15 6 8 1032.2 1032.3 0.0
21/02:30am 10.1 7.7 6.8 80 1.6 N 9 13 5 7 1032.4 - 0.0
21/02:00am 9.2 6.8 7.0 86 1.0 N 9 11 5 6 1032.6 - 0.0
21/01:30am 8.7 6.8 6.5 86 1.0 NNW 6 7 3 4 1032.8 - 0.0
21/01:00am 8.3 6.1 6.1 86 1.0 NNW 7 9 4 5 1033.0 - 0.0
21/12:30am 8.4 6.1 5.9 84 1.1 NNW 7 9 4 5 1033.2 - 0.0
21/12:00am 8.8 6.5 5.9 82 1.3 NNW 7 11 4 6 1033.3 1033.4 0.0
 
Date/Time
EDT
Temp
°C
App
Temp
°C
Dew
Point
Rel
Hum
%
Delta-T
°C
Wind Press
QNH
hPa
Press
MSL
hPa
Rain
since 9 am
mm
Dir
 
Spd
km/h
Gust
km/h
Spd
kts
Gust
kts
20/11:30pm 9.4 7.2 6.1 80 1.5 NNW 7 11 4 6 1033.4 - 0.0
20/11:00pm 9.6 7.3 5.6 76 1.8 NW 7 9 4 5 1033.4 - 0.0
20/10:30pm 11.0 8.4 6.2 72 2.2 N 9 13 5 7 1033.5 - 0.0
20/10:00pm 13.7 9.8 7.0 64 3.3 ENE 17 24 9 13 1033.4 - 0.0
20/09:30pm 13.7 8.8 6.8 63 3.3 E 22 28 12 15 1033.4 - 0.0
20/09:00pm 13.8 8.9 6.9 63 3.3 E 22 30 12 16 1033.2 1033.3 0.0
20/08:30pm 13.6 9.0 6.5 62 3.4 E 20 28 11 15 1033.0 - 0.0
20/08:00pm 13.5 9.1 6.6 63 3.3 E 19 26 10 14 1032.8 - 0.0
20/07:30pm 13.6 9.1 6.2 61 3.5 E 19 24 10 13 1032.6 - 0.0
20/07:00pm 13.7 9.1 5.8 59 3.7 E 19 24 10 13 1032.4 - 0.0
20/06:30pm 14.5 10.4 6.1 57 4.0 E 17 24 9 13 1032.4 - 0.0
20/06:00pm 14.8 11.1 6.1 56 4.1 E 15 22 8 12 1032.2 1032.3 0.0
20/05:30pm 15.1 11.3 5.9 54 4.4 ESE 15 20 8 11 1032.2 - 0.0
20/05:00pm 14.9 11.5 6.0 55 4.3 ESE 13 20 7 11 1032.0 - 0.0
20/04:30pm 14.8 11.0 5.9 55 4.3 ESE 15 20 8 11 1031.7 - 0.0
20/04:00pm 15.2 11.1 6.2 55 4.3 ESE 17 22 9 12 1031.6 - 0.0
20/03:30pm 15.0 11.0 6.6 57 4.1 ESE 17 24 9 13 1031.8 - 0.0
20/03:00pm 15.3 11.3 6.6 56 4.2 SE 17 24 9 13 1031.9 1032.0 0.0
20/02:30pm 14.9 10.7 5.7 54 4.4 SE 17 22 9 12 1032.0 - 0.0
20/02:00pm 15.9 12.1 7.4 57 4.2 SE 17 22 9 12 1032.1 - 0.0
20/01:30pm 15.1 10.8 6.9 58 4.0 SE 19 26 10 14 1032.3 - 0.0
20/01:00pm 15.5 12.3 6.8 56 4.3 SE 13 24 7 13 1032.1 - 0.0
20/12:30pm 15.2 12.2 6.2 55 4.3 SE 11 20 6 11 1032.4 - 0.0
20/12:00pm 14.8 12.1 7.4 61 3.6 SE 11 24 6 13 1032.8 1032.9 0.0
20/11:30am 14.4 11.7 7.2 62 3.5 ESE 11 20 6 11 1032.8 - 0.0
20/11:00am 14.6 11.5 7.4 62 3.5 S 13 24 7 13 1032.7 - 0.0
20/10:30am 15.2 11.9 8.0 62 3.6 SE 15 28 8 15 1032.4 - 0.0
20/10:00am 16.1 13.9 9.5 65 3.4 SSE 11 24 6 13 1032.1 - 0.0

Other Formats:

Comma delimited format used in spreadsheet applications
http://www.bom.gov.au/fwo/IDV60801/IDV60801.94935.axf

JavaScript Object Notation format (JSON) in row-major order
http://www.bom.gov.au/fwo/IDV60801/IDV60801.94935.json